Overview Statistics Trail Chart Weather Telemetry Raw packets
 

This is the latest recevied weather packets stored in our database for station/object 1NW106. If no packets are shown the sender has not sent any weather packets the latest 10 day(s).

<< 32 33 34 35 36 37 38 >>
Time Temp. Humidity Pressure Rain* Wind** Luminosity Snow
1787884170 25.56° C 99% 1008.3 hPa 14.73 mm - - -
1787883574 25.56° C 98% 1008.4 hPa 14.73 mm - - -
1787882970 26.11° C 91% 1009.3 hPa 14.73 mm - - -
1787882370 26.67° C 90% 1009.4 hPa 14.73 mm - - -
1787881770 26.11° C 92% 1009 hPa 14.73 mm - - -
1787881170 26.11° C 92% 1008.8 hPa 14.73 mm - - -
1787880570 26.11° C 93% 1008.4 hPa 14.73 mm - - -
1787879972 26.11° C 92% 1008.4 hPa 14.73 mm - - -
1787879370 26.11° C 93% 1008.2 hPa 14.73 mm - - -
1787878770 25.56° C 95% 1007.9 hPa 14.73 mm - - -
1787878170 25.56° C 94% 1007.8 hPa 14.73 mm - - -
1787877570 25.56° C 94% 1007.9 hPa 14.73 mm - - -
1787876972 25° C 94% 1007.7 hPa 14.73 mm - - -
1787876370 25° C 95% 1007.5 hPa 14.73 mm - - -
1787875770 25° C 96% 1007.2 hPa 14.73 mm - - -
1787875170 24.44° C 98% 1006.8 hPa 14.73 mm - - -
1787874570 24.44° C 99% 1006.2 hPa 14.73 mm - - -
1787873970 24.44° C 99% 1006.1 hPa 14.73 mm - - -
1787873370 24.44° C 99% 1005.8 hPa 14.73 mm - - -
1787872770 24.44° C 99% 1005.9 hPa 14.73 mm - - -
1787872170 24.44° C 99% 1005.8 hPa 14.73 mm - - -
1787871570 24.44° C 97% 1006.1 hPa 14.73 mm - - -
1787870970 24.44° C 96% 1006.1 hPa 14.73 mm - - -
1787870370 24.44° C 95% 1006 hPa 14.73 mm - - -
1787869770 24.44° C 96% 1005.8 hPa 14.73 mm - - -

* Rain latest hour (hover to see other rain measurements)
** Current wind speed in m/s (hover to see current wind gust speed)